CheckWX is a tool to help pilots better visualize weather data.  It is not intended as a substitute for an official pre-flight weather briefing.

07:16:33 UTC

KOKK METAR
Kokomo Municipal Airport
Kokomo, Indiana, USA
Current

21 mins ago

KOKK 180656Z AUTO 08003KT 4SM BR CLR 15/15 A3015 RMK AO2 SLP207 T01500150
Observed
Sep-18 @ 06:56 UTC
Wind
  • 080° at 3 KTS
Visibility
4 SM
Flight Rules
MVFR
Conditions
Mist
Cloud Levels
  • Clear skies
Temperature
15°C / 59°F
Dewpoint
15°C / 59°F
Humidity
100%
Altimeter
30.15" Hg
Pressure
1021.02 hPa
Previous

1 hour ago

KOKK 180556Z AUTO 09004KT 1 1/2SM BR CLR 16/16 A3016 RMK AO2 VIS 1 1/4V3 SLP209 T01560156 10211 20156 53006
Observed
Sep-18 @ 05:56 UTC
Wind
  • 090° at 4 KTS
Visibility
1 1/2 SM
Flight Rules
IFR
Conditions
Mist
Cloud Levels
  • Clear skies
Temperature
16°C / 61°F
Dewpoint
16°C / 61°F
Humidity
100%
Altimeter
30.16" Hg
Pressure
1021.32 hPa
Previous

2 hours ago

KOKK 180456Z AUTO 09006KT 1 1/2SM BR CLR 17/16 A3015 RMK AO2 SLP206 T01720161
Observed
Sep-18 @ 04:56 UTC
Wind
  • 090° at 6 KTS
Visibility
1 1/2 SM
Flight Rules
IFR
Conditions
Mist
Cloud Levels
  • Clear skies
Temperature
17°C / 63°F
Dewpoint
16°C / 61°F
Humidity
94%
Altimeter
30.15" Hg
Pressure
1021.02 hPa